Time;durP1;ratioP1;P1;durP2;ratioP2;P2;SDS_P1;SDS_P2;PMS_P1;PMS_P2;Temp;Humidity;BMP_temperature;BMP_pressure;BME280_temperature;BME280_humidity;BME280_pressure;Samples;Min_cycle;Max_cycle;Signal;HPM_P1;HPM_P2
2022/11/12 00:01:05;;;;;;;15.20;7.60;;;9.30;99.90;;;9.63;nan;102348.28;5045603;28;20631;-64
2022/11/12 00:03:31;;;;;;;12.77;6.77;;;9.30;99.90;;;9.72;nan;102342.69;5052112;28;21172;-64
2022/11/12 00:05:58;;;;;;;10.47;5.83;;;9.30;99.90;;;9.74;nan;102340.88;5031990;28;20694;-65
2022/11/12 00:08:25;;;;;;;17.53;7.97;;;9.30;99.90;;;9.66;nan;102330.78;5052740;28;20623;-66
2022/11/12 00:10:53;;;;;;;14.60;6.67;;;9.30;99.90;;;9.65;nan;102336.88;5046808;28;20655;-64
2022/11/12 00:13:20;;;;;;;20.53;8.87;;;9.30;99.90;;;9.62;nan;102339.63;5046273;28;20694;-64
2022/11/12 00:15:47;;;;;;;17.17;6.87;;;9.30;99.90;;;9.56;nan;102339.84;5045013;28;20676;-66
2022/11/12 00:18:14;;;;;;;16.00;7.90;;;9.20;99.90;;;9.54;nan;102340.84;5029083;28;21060;-64
2022/11/12 00:20:41;;;;;;;14.60;7.87;;;9.20;99.90;;;9.37;nan;102338.91;5037528;28;20891;-66
2022/11/12 00:23:08;;;;;;;19.70;9.50;;;9.10;99.90;;;9.26;nan;102341.94;5044638;28;20822;-64
2022/11/12 00:25:35;;;;;;;18.13;7.70;;;9.00;99.90;;;9.24;nan;102342.94;5050997;28;20640;-65
2022/11/12 00:28:08;;;;;;;17.07;8.20;;;9.00;99.90;;;9.32;nan;102331.31;5050706;28;20639;-64
2022/11/12 00:30:39;;;;;;;13.87;6.40;;;8.90;99.90;;;9.25;nan;102340.25;5037424;28;20624;-66
2022/11/12 00:33:06;;;;;;;16.00;6.43;;;9.00;99.90;;;9.32;nan;102336.50;5051112;28;20661;-65
2022/11/12 00:35:34;;;;;;;12.17;6.67;;;9.00;99.90;;;9.26;nan;102343.72;5051094;28;20631;-65
2022/11/12 00:38:01;;;;;;;14.97;5.70;;;9.00;99.90;;;9.34;nan;102337.28;5050868;28;20686;-65
2022/11/12 00:40:29;;;;;;;14.37;6.80;;;9.00;99.90;;;9.34;nan;102339.03;5038417;28;20961;-63
2022/11/12 00:42:56;;;;;;;13.10;6.77;;;9.00;99.90;;;9.28;nan;102344.50;5050072;28;21085;-65
2022/11/12 00:45:24;;;;;;;11.37;5.43;;;9.00;99.90;;;9.31;nan;102349.56;5050448;28;21077;-65
2022/11/12 00:47:55;;;;;;;10.47;6.13;;;9.00;99.90;;;9.33;nan;102345.16;5049952;28;20993;-65
2022/11/12 00:50:22;;;;;;;12.47;5.87;;;9.00;99.90;;;9.37;nan;102341.50;5051583;28;20696;-65
2022/11/12 00:52:52;;;;;;;12.20;5.87;;;9.00;99.90;;;9.33;nan;102335.59;5050602;28;20635;-65
2022/11/12 00:55:19;;;;;;;10.70;5.30;;;9.00;99.90;;;9.35;nan;102348.53;5050289;28;21194;-65
2022/11/12 00:57:46;;;;;;;9.80;5.20;;;9.00;99.90;;;9.35;nan;102352.00;5050443;28;21246;-65
2022/11/12 01:00:18;;;;;;;11.53;5.77;;;9.00;99.90;;;9.41;nan;102355.28;5051090;28;20665;-65
2022/11/12 01:02:45;;;;;;;7.67;3.50;;;9.00;99.90;;;9.35;nan;102341.56;5033396;28;20629;-65
2022/11/12 01:05:17;;;;;;;8.87;4.60;;;9.00;99.90;;;9.39;nan;102337.94;5033795;28;20662;-65
2022/11/12 01:07:44;;;;;;;7.13;4.33;;;9.00;99.90;;;9.38;nan;102333.66;5051261;28;20628;-64
2022/11/12 01:10:12;;;;;;;11.03;5.50;;;9.00;99.90;;;9.38;nan;102336.25;5050534;28;20619;-65
2022/11/12 01:12:39;;;;;;;7.70;5.10;;;9.00;99.90;;;9.39;nan;102339.72;5033744;28;21173;-65
2022/11/12 01:15:07;;;;;;;9.40;3.43;;;9.00;99.90;;;9.42;nan;102336.97;5049903;28;21222;-64
2022/11/12 01:17:34;;;;;;;7.00;4.07;;;9.00;99.90;;;9.42;nan;102336.13;5048097;28;20664;-63
2022/11/12 01:20:01;;;;;;;7.70;3.77;;;9.00;99.90;;;9.37;nan;102337.16;5050347;28;21222;-65
2022/11/12 01:22:28;;;;;;;6.90;4.10;;;9.00;99.90;;;9.36;nan;102345.91;5048561;28;20639;-65
2022/11/12 01:24:55;;;;;;;7.40;3.57;;;9.00;99.90;;;9.37;nan;102342.38;5049711;28;20635;-65
2022/11/12 01:27:22;;;;;;;8.60;5.10;;;9.00;99.90;;;9.42;nan;102341.31;5049791;28;21279;-64
2022/11/12 01:29:49;;;;;;;7.20;4.33;;;9.00;99.90;;;9.30;nan;102343.53;5050361;28;20623;-65
2022/11/12 01:32:16;;;;;;;5.30;3.50;;;9.00;99.90;;;9.32;nan;102341.72;5049281;28;20649;-66
2022/11/12 01:34:43;;;;;;;6.37;3.47;;;8.90;99.90;;;9.32;nan;102344.31;5033710;28;20644;-65
2022/11/12 01:37:10;;;;;;;5.93;3.63;;;8.90;99.90;;;9.33;nan;102335.59;5049180;28;21245;-65
2022/11/12 01:39:37;;;;;;;5.00;3.43;;;8.90;99.90;;;9.35;nan;102328.56;5048293;28;20625;-65
2022/11/12 01:42:04;;;;;;;7.33;3.73;;;9.00;99.90;;;9.35;nan;102330.31;5050886;28;20696;-64
2022/11/12 01:44:31;;;;;;;4.90;3.60;;;8.90;99.90;;;9.37;nan;102329.34;5037761;28;20652;-65
2022/11/12 01:47:05;;;;;;;4.90;2.73;;;8.90;99.90;;;9.29;nan;102336.63;5013561;28;20686;-68
2022/11/12 01:49:37;;;;;;;11.23;4.67;;;8.90;99.90;;;9.26;nan;102328.91;5029535;28;20674;-62
2022/11/12 01:52:17;;;;;;;10.57;4.50;;;8.90;99.90;;;9.29;nan;102322.75;5047261;28;20636;-66
2022/11/12 01:54:48;;;;;;;7.10;3.77;;;8.90;99.90;;;9.29;nan;102318.38;5049517;23;20706;-65
2022/11/12 01:57:24;;;;;;;8.77;4.80;;;8.90;99.90;;;9.31;nan;102324.38;5013839;28;21211;-65
2022/11/12 01:59:56;;;;;;;5.30;2.90;;;8.90;99.90;;;9.31;nan;102329.59;5012122;28;20694;-66
2022/11/12 02:02:23;;;;;;;6.97;3.87;;;8.90;99.90;;;9.30;nan;102316.63;5012765;28;20636;-66
2022/11/12 02:04:51;;;;;;;5.47;2.90;;;8.90;99.90;;;9.31;nan;102324.38;5028088;28;20663;-66
2022/11/12 02:07:19;;;;;;;6.03;3.87;;;8.90;99.90;;;9.29;nan;102326.19;5028074;28;20631;-66
2022/11/12 02:09:46;;;;;;;4.30;2.80;;;8.90;99.90;;;9.30;nan;102327.06;5029380;28;21202;-64
2022/11/12 02:13:56;;;;;;;10.03;4.50;;;8.90;99.90;;;9.26;nan;102323.69;5030594;28;20646;-65
2022/11/12 02:15:00;;;;;;;10.23;4.37;;;8.90;99.90;;;9.25;nan;102329.84;5016482;28;21312;-65
2022/11/12 02:17:27;;;;;;;5.30;3.77;;;8.90;99.90;;;9.26;nan;102326.31;5011269;28;20734;-65
2022/11/12 02:19:58;;;;;;;5.10;3.17;;;8.80;99.90;;;9.27;nan;102329.75;5028989;28;21197;-65
2022/11/12 02:22:25;;;;;;;5.57;3.13;;;8.80;99.90;;;9.22;nan;102323.91;5036623;28;20647;-65
2022/11/12 02:24:52;;;;;;;5.40;3.70;;;8.90;99.90;;;9.18;nan;102325.75;5031887;28;21041;-66
2022/11/12 02:27:19;;;;;;;5.50;4.00;;;8.80;99.90;;;9.19;nan;102326.63;5041062;28;21055;-66
2022/11/12 02:29:46;;;;;;;5.53;3.67;;;8.80;99.90;;;9.22;nan;102329.13;5034502;28;20651;-67
2022/11/12 02:32:13;;;;;;;5.17;3.13;;;8.80;99.90;;;9.22;nan;102319.53;5021418;28;21057;-66
2022/11/12 02:34:40;;;;;;;6.47;4.00;;;8.80;99.90;;;9.22;nan;102313.50;5018503;28;20671;-67
2022/11/12 02:37:07;;;;;;;8.90;3.67;;;8.80;99.90;;;9.23;nan;102310.81;5043469;28;20663;-67
2022/11/12 02:39:34;;;;;;;9.40;5.57;;;8.80;99.90;;;9.25;nan;102298.56;5022808;28;20636;-67
2022/11/12 02:42:01;;;;;;;8.70;4.97;;;8.80;99.90;;;9.20;nan;102300.50;5016251;28;20693;-66
2022/11/12 02:44:29;;;;;;;9.77;5.40;;;8.90;99.90;;;8.97;nan;102297.09;5036523;28;20667;-65
2022/11/12 02:46:56;;;;;;;12.90;5.80;;;8.80;99.90;;;8.92;nan;102299.06;5034957;28;20615;-66
2022/11/12 02:49:23;;;;;;;11.93;5.03;;;8.70;99.90;;;9.02;nan;102303.00;5039498;28;21016;-66
2022/11/12 02:51:50;;;;;;;11.53;5.50;;;8.70;99.90;;;8.96;nan;102296.28;5052766;28;20644;-66
2022/11/12 02:54:17;;;;;;;7.60;4.53;;;8.70;99.90;;;8.90;nan;102300.88;5015260;28;20671;-66
2022/11/12 02:56:44;;;;;;;14.33;5.70;;;8.70;99.90;;;8.91;nan;102302.56;5026741;28;21241;-66
2022/11/12 02:59:11;;;;;;;8.57;5.03;;;8.70;99.90;;;8.98;nan;102297.06;5014918;28;20636;-66
2022/11/12 03:01:38;;;;;;;10.00;5.53;;;8.70;99.90;;;8.92;nan;102291.25;5041757;28;20641;-66
2022/11/12 03:04:05;;;;;;;10.63;5.70;;;8.70;99.90;;;9.03;nan;102283.88;5015585;28;20709;-66
2022/11/12 03:06:32;;;;;;;8.97;5.40;;;8.80;99.90;;;8.84;nan;102298.53;5040524;28;20634;-66
2022/11/12 03:08:59;;;;;;;12.90;5.47;;;8.70;99.90;;;8.92;nan;102289.47;5052369;28;20640;-66
2022/11/12 03:11:26;;;;;;;8.13;4.27;;;8.70;99.90;;;8.72;nan;102297.22;5044317;28;21194;-66
2022/11/12 03:13:53;;;;;;;8.17;4.67;;;8.60;99.90;;;8.72;nan;102301.56;5029050;28;20716;-66
2022/11/12 03:16:20;;;;;;;12.13;5.13;;;8.60;99.90;;;8.70;nan;102303.38;5041197;28;20631;-67
2022/11/12 03:18:47;;;;;;;11.43;5.40;;;8.60;99.90;;;8.72;nan;102302.44;5032118;28;20694;-66
2022/11/12 03:21:14;;;;;;;10.87;6.10;;;8.60;99.90;;;8.75;nan;102304.94;5014179;28;21007;-66
2022/11/12 03:23:41;;;;;;;12.00;6.07;;;8.60;99.90;;;8.81;nan;102304.69;5032316;28;20659;-66
2022/11/12 03:26:08;;;;;;;7.03;4.03;;;8.60;99.90;;;8.87;nan;102296.63;5030257;28;20672;-66
2022/11/12 03:28:35;;;;;;;12.40;6.53;;;8.60;99.90;;;8.82;nan;102295.94;5032119;28;20631;-67
2022/11/12 03:31:01;;;;;;;10.90;6.40;;;8.60;99.90;;;8.84;nan;102295.91;5013626;28;20640;-66
2022/11/12 03:33:28;;;;;;;11.90;5.43;;;8.60;99.90;;;8.82;nan;102297.69;5014272;28;20673;-67
2022/11/12 03:35:55;;;;;;;11.03;5.97;;;8.60;99.90;;;8.70;nan;102299.03;5033657;28;20635;-66
2022/11/12 03:38:23;;;;;;;7.77;4.60;;;8.50;99.90;;;8.78;nan;102296.97;5033800;28;20738;-66
2022/11/12 03:40:50;;;;;;;9.47;5.17;;;8.60;99.90;;;8.82;nan;102298.56;4988069;28;20633;-66
2022/11/12 03:43:17;;;;;;;10.50;6.07;;;8.60;99.90;;;8.84;nan;102304.56;5043823;28;21261;-66
2022/11/12 03:45:44;;;;;;;8.03;4.97;;;8.60;99.90;;;8.82;nan;102303.75;5012555;28;20675;-66
2022/11/12 03:48:11;;;;;;;10.43;5.43;;;8.60;99.90;;;8.62;nan;102298.47;5036028;28;20707;-67
2022/11/12 03:50:38;;;;;;;4.50;2.77;;;8.50;99.90;;;8.72;nan;102296.34;5032968;28;20640;-66
2022/11/12 03:53:05;;;;;;;8.33;5.53;;;8.50;99.90;;;8.70;nan;102293.81;5018064;28;20629;-65
2022/11/12 03:55:32;;;;;;;9.63;4.80;;;8.50;99.90;;;8.68;nan;102293.03;5023846;28;20691;-65
2022/11/12 03:57:59;;;;;;;7.20;4.00;;;8.50;99.90;;;8.70;nan;102293.81;5042841;28;20665;-64
2022/11/12 04:00:28;;;;;;;5.30;3.50;;;8.50;99.90;;;8.69;nan;102292.13;5042540;28;21010;-65
2022/11/12 04:02:56;;;;;;;9.00;4.57;;;8.50;99.90;;;8.53;nan;102289.25;4995580;28;20641;-65
2022/11/12 04:08:35;;;;;;;5.13;2.87;;;8.40;99.90;;;8.65;nan;102279.28;5030808;28;20639;-66
2022/11/12 04:11:22;;;;;;;10.00;5.07;;;8.40;99.90;;;8.66;nan;102275.78;5030929;28;20647;-66
2022/11/12 04:13:49;;;;;;;8.17;4.67;;;8.40;99.90;;;8.53;nan;102275.41;5045212;28;20660;-66
2022/11/12 04:22:07;;;;;;;7.60;4.40;;;8.40;99.90;;;8.70;nan;102280.81;4996951;28;20625;-65
2022/11/12 04:27:30;;;;;;;4.83;3.30;;;8.50;99.90;;;8.59;nan;102281.22;5032950;28;20662;-66
2022/11/12 04:30:17;;;;;;;6.07;4.13;;;8.40;99.90;;;8.65;nan;102281.88;5010550;28;21201;-66
2022/11/12 04:32:55;;;;;;;7.47;4.27;;;8.40;99.90;;;8.58;nan;102283.88;5028560;28;20678;-66
2022/11/12 04:35:24;;;;;;;4.90;3.20;;;8.40;99.90;;;8.62;nan;102287.22;5042684;28;20646;-67
2022/11/12 04:37:52;;;;;;;10.37;5.40;;;8.40;99.90;;;8.62;nan;102282.88;5015228;28;21045;-67
2022/11/12 04:46:02;;;;;;;9.80;6.20;;;8.40;99.90;;;8.37;nan;102284.66;5032285;28;21272;-67
2022/11/12 04:48:29;;;;;;;5.67;4.57;;;8.30;99.90;;;8.44;nan;102280.94;5024012;28;20643;-68
2022/11/12 04:52:03;;;;;;;8.97;5.30;;;8.30;99.90;;;8.50;nan;102275.50;5017321;28;20634;-68
2022/11/12 04:53:53;;;;;;;8.00;4.60;;;8.30;99.90;;;8.57;nan;102284.78;5016638;28;20657;-66
2022/11/12 04:56:20;;;;;;;7.83;4.47;;;8.30;99.90;;;8.35;nan;102291.66;5031267;28;20697;-66
2022/11/12 04:58:47;;;;;;;8.70;5.40;;;8.20;99.90;;;8.38;nan;102281.16;5014359;28;20648;-65
2022/11/12 05:01:13;;;;;;;10.37;5.70;;;8.30;99.90;;;8.19;nan;102291.38;5013568;28;21137;-65
2022/11/12 05:03:40;;;;;;;8.60;3.80;;;8.20;99.90;;;8.40;nan;102292.38;5011989;28;21084;-66
2022/11/12 05:06:50;;;;;;;5.63;3.70;;;8.20;99.90;;;8.36;nan;102295.97;5012266;28;20645;-65
2022/11/12 05:08:55;;;;;;;7.67;5.00;;;8.20;99.90;;;8.29;nan;102297.09;5029991;28;20621;-65
2022/11/12 05:11:22;;;;;;;5.70;4.13;;;8.10;99.90;;;8.46;nan;102305.13;5030019;28;21219;-66
2022/11/12 05:13:49;;;;;;;5.13;3.43;;;8.20;99.90;;;8.47;nan;102306.84;5030701;28;20633;-66
2022/11/12 05:16:17;;;;;;;6.90;4.00;;;8.20;99.90;;;8.31;nan;102306.53;5011888;28;20692;-67
2022/11/12 05:18:44;;;;;;;5.17;3.60;;;8.10;99.90;;;8.45;nan;102306.06;5012621;28;20689;-66
2022/11/12 05:23:56;;;;;;;4.07;3.63;;;8.20;99.90;;;8.48;nan;102305.94;5015063;28;20654;-66
2022/11/12 05:26:23;;;;;;;5.87;4.20;;;8.20;99.90;;;8.35;nan;102302.94;5036963;28;20683;-66
2022/11/12 05:28:50;;;;;;;5.60;4.10;;;8.20;99.90;;;8.37;nan;102303.72;5031756;28;20681;-66
2022/11/12 05:31:17;;;;;;;6.40;4.50;;;8.20;99.90;;;8.21;nan;102307.75;5037843;28;21261;-66
2022/11/12 05:33:44;;;;;;;3.57;3.27;;;8.10;99.90;;;8.25;nan;102305.88;5031546;28;21228;-65
2022/11/12 05:36:11;;;;;;;5.67;4.33;;;8.10;99.90;;;8.31;nan;102310.91;5032028;28;20706;-65
2022/11/12 05:38:38;;;;;;;4.40;3.40;;;8.10;99.90;;;8.42;nan;102317.41;5048051;28;20668;-65
2022/11/12 05:41:05;;;;;;;7.20;4.70;;;8.10;99.90;;;8.32;nan;102313.47;5021574;28;20659;-65
2022/11/12 05:43:32;;;;;;;3.63;3.30;;;8.10;99.90;;;8.28;nan;102316.22;5030089;28;21270;-66
2022/11/12 05:45:59;;;;;;;4.70;3.00;;;8.20;99.90;;;8.32;nan;102312.59;5029762;28;20633;-65
2022/11/12 05:48:26;;;;;;;7.07;4.13;;;8.10;99.90;;;8.31;nan;102313.50;5031298;28;21179;-66
2022/11/12 05:50:53;;;;;;;5.33;3.77;;;8.10;99.90;;;8.34;nan;102314.25;5012970;28;20621;-65
2022/11/12 05:53:41;;;;;;;5.50;3.80;;;8.10;99.90;;;8.31;nan;102313.50;5030004;28;20673;-66
2022/11/12 05:56:10;;;;;;;7.30;3.70;;;8.10;99.90;;;8.30;nan;102320.47;5012362;28;20624;-66
2022/11/12 05:58:37;;;;;;;6.07;3.63;;;8.10;99.90;;;8.37;nan;102327.13;5029718;28;20660;-64
2022/11/12 06:01:04;;;;;;;4.00;3.30;;;8.10;99.90;;;8.26;nan;102328.44;4995138;28;20629;-65
2022/11/12 06:03:32;;;;;;;2.90;2.60;;;8.10;99.90;;;8.29;nan;102325.72;5029430;28;20694;-66
2022/11/12 06:05:59;;;;;;;3.53;3.07;;;8.00;99.90;;;8.33;nan;102330.75;5041233;28;20645;-67
2022/11/12 06:08:26;;;;;;;4.73;3.77;;;8.10;99.90;;;8.29;nan;102331.75;5033392;28;20634;-66
2022/11/12 06:10:54;;;;;;;3.20;2.90;;;8.10;99.90;;;8.34;nan;102327.25;5045307;28;20636;-65
2022/11/12 06:13:23;;;;;;;2.50;2.30;;;8.10;99.90;;;8.42;nan;102330.44;5036484;28;21041;-66
2022/11/12 06:15:54;;;;;;;3.17;2.87;;;8.20;99.90;;;8.37;nan;102328.88;5036908;28;20638;-65
2022/11/12 06:18:23;;;;;;;3.40;3.10;;;8.10;99.90;;;8.34;nan;102336.81;4998548;28;20664;-66
2022/11/12 06:23:36;;;;;;;4.70;3.50;;;8.10;99.90;;;8.30;nan;102332.63;5035691;28;20659;-66
2022/11/12 06:26:04;;;;;;;2.77;2.57;;;8.10;99.90;;;8.35;nan;102331.53;5046226;28;20636;-66
2022/11/12 06:28:31;;;;;;;3.40;3.10;;;8.10;99.90;;;8.28;nan;102326.63;5040953;28;21207;-66
2022/11/12 06:30:58;;;;;;;3.47;2.83;;;8.10;99.90;;;8.36;nan;102333.25;5052775;28;20664;-66
2022/11/12 06:33:24;;;;;;;2.77;2.47;;;8.10;99.90;;;8.39;nan;102330.53;5037964;28;20662;-66
2022/11/12 06:36:04;;;;;;;2.87;2.50;;;8.10;99.90;;;8.33;nan;102338.56;5036025;28;20641;-65
2022/11/12 06:38:38;;;;;;;2.60;2.40;;;8.00;99.90;;;8.35;nan;102333.28;5051989;28;20663;-66
2022/11/12 06:41:08;;;;;;;1.67;1.57;;;8.10;99.90;;;8.33;nan;102335.94;5037915;28;20711;-65
2022/11/12 06:43:36;;;;;;;2.70;2.50;;;8.10;99.90;;;8.41;nan;102333.91;5046546;28;21308;-66
2022/11/12 06:46:11;;;;;;;4.53;2.93;;;8.10;99.90;;;8.43;nan;102339.91;5029835;28;21006;-66
2022/11/12 06:48:39;;;;;;;5.33;2.57;;;8.10;99.90;;;8.43;nan;102339.91;5033596;28;20637;-65
2022/11/12 06:51:16;;;;;;;2.20;2.00;;;8.10;99.90;;;8.43;nan;102341.69;5045160;28;20637;-63
2022/11/12 06:53:44;;;;;;;3.40;2.20;;;8.10;99.90;;;8.44;nan;102339.03;5016027;28;20717;-65
2022/11/12 06:56:12;;;;;;;3.80;3.40;;;8.10;99.90;;;8.40;nan;102336.59;5015260;28;20639;-66
2022/11/12 06:58:39;;;;;;;3.20;2.90;;;8.10;99.90;;;8.42;nan;102340.84;5014262;28;20668;-66
2022/11/12 07:01:11;;;;;;;2.17;1.97;;;8.10;99.90;;;8.48;nan;102332.81;5015622;28;20632;-66
2022/11/12 07:03:40;;;;;;;3.40;2.87;;;8.10;99.90;;;8.53;nan;102343.91;5032681;28;20665;-65
2022/11/12 07:06:17;;;;;;;2.13;2.00;;;8.20;99.90;;;8.53;nan;102351.69;5034090;28;20609;-66
2022/11/12 07:08:48;;;;;;;1.90;1.80;;;8.20;99.90;;;8.59;nan;102337.59;5015836;28;20639;-66
2022/11/12 07:11:17;;;;;;;3.77;2.40;;;8.20;99.90;;;8.61;nan;102343.59;5032493;28;21168;-67
2022/11/12 07:13:45;;;;;;;2.93;2.70;;;8.20;99.90;;;8.51;nan;102340.50;5014917;28;20712;-66
2022/11/12 07:16:17;;;;;;;2.03;1.93;;;8.20;99.90;;;8.52;nan;102343.94;5026282;28;20637;-66
2022/11/12 07:18:45;;;;;;;3.27;1.43;;;8.20;99.90;;;8.50;nan;102335.34;5014669;28;21050;-67
2022/11/12 07:21:17;;;;;;;4.30;2.40;;;8.20;99.90;;;8.41;nan;102338.28;4998033;28;20686;-66
2022/11/12 07:23:45;;;;;;;3.30;3.00;;;8.10;99.90;;;8.47;nan;102344.13;5014431;28;21075;-66
2022/11/12 07:26:17;;;;;;;3.63;3.03;;;8.20;99.90;;;8.39;nan;102335.72;5031684;28;20631;-66
2022/11/12 07:28:45;;;;;;;2.93;2.73;;;8.20;99.90;;;8.26;nan;102334.47;5032109;28;20987;-65
2022/11/12 07:31:14;;;;;;;2.03;1.93;;;8.10;99.90;;;8.40;nan;102336.59;5044118;28;20643;-65
2022/11/12 07:33:42;;;;;;;3.23;2.07;;;8.10;99.90;;;8.46;nan;102344.16;5018749;28;20874;-66
2022/11/12 07:36:15;;;;;;;4.40;2.50;;;8.10;99.90;;;8.49;nan;102329.31;5028007;28;20690;-65
2022/11/12 07:38:43;;;;;;;5.47;3.27;;;8.10;99.90;;;8.37;nan;102326.28;5051459;28;20666;-65
2022/11/12 07:41:17;;;;;;;5.33;3.40;;;8.10;99.90;;;8.37;nan;102332.34;5037767;28;20635;-64
2022/11/12 07:43:46;;;;;;;7.07;2.50;;;8.10;99.90;;;8.46;nan;102336.34;5031389;28;20667;-67
2022/11/12 07:46:25;;;;;;;3.43;3.03;;;8.10;99.90;;;8.43;nan;102336.47;5027997;28;20697;-65
2022/11/12 07:48:53;;;;;;;4.90;3.43;;;8.10;99.90;;;8.49;nan;102341.47;5030705;28;21201;-66
2022/11/12 07:51:26;;;;;;;4.07;3.10;;;8.20;99.90;;;8.46;nan;102338.97;5037937;28;20643;-65
2022/11/12 07:53:56;;;;;;;2.60;2.40;;;8.20;99.90;;;8.50;nan;102335.34;5032629;23;21239;-65
2022/11/12 07:56:27;;;;;;;6.10;3.60;;;8.20;99.90;;;8.37;nan;102332.34;5032833;28;20659;-65
2022/11/12 07:58:54;;;;;;;6.40;3.63;;;8.20;99.90;;;8.35;nan;102326.34;5024249;28;20661;-65
2022/11/12 08:01:34;;;;;;;3.47;3.17;;;8.10;99.90;;;8.29;nan;102326.56;5039783;28;20651;-64
2022/11/12 08:04:04;;;;;;;3.90;2.90;;;8.10;99.90;;;8.36;nan;102327.19;5031530;28;21031;-65
2022/11/12 08:06:32;;;;;;;4.17;3.40;;;8.10;99.90;;;8.39;nan;102332.31;5030787;28;20648;-64
2022/11/12 08:09:03;;;;;;;5.07;3.37;;;8.10;99.90;;;8.44;nan;102338.16;5049347;28;20681;-62
2022/11/12 08:11:31;;;;;;;5.80;3.60;;;8.10;99.90;;;8.50;nan;102343.13;5045872;28;20691;-65
2022/11/12 08:13:59;;;;;;;3.70;3.40;;;8.10;99.90;;;8.44;nan;102341.63;5050547;28;20667;-64
2022/11/12 08:16:26;;;;;;;2.70;2.40;;;8.10;99.90;;;8.39;nan;102340.09;5049024;28;20660;-63
2022/11/12 08:18:53;;;;;;;4.73;3.50;;;8.10;99.90;;;8.24;nan;102346.63;5045044;28;20742;-65
2022/11/12 08:21:20;;;;;;;3.40;2.90;;;8.00;99.90;;;8.33;nan;102348.09;5056640;28;20627;-64
2022/11/12 08:23:47;;;;;;;5.23;3.80;;;8.00;99.90;;;8.40;nan;102347.00;5071501;28;20639;-66
2022/11/12 08:26:17;;;;;;;4.00;3.67;;;8.10;99.90;;;8.33;nan;102350.69;5054565;28;21222;-65
2022/11/12 08:28:45;;;;;;;3.47;3.07;;;8.10;99.90;;;8.37;nan;102352.28;5033345;28;20637;-65
2022/11/12 08:31:19;;;;;;;3.83;3.43;;;8.10;99.90;;;8.37;nan;102345.34;5050372;28;20640;-65
2022/11/12 08:33:46;;;;;;;5.03;3.40;;;8.10;99.90;;;8.30;nan;102349.09;5033337;28;21090;-64
2022/11/12 08:36:15;;;;;;;5.47;4.30;;;8.10;99.90;;;8.30;nan;102340.44;5050288;28;20667;-64
2022/11/12 08:38:43;;;;;;;5.53;3.93;;;8.10;99.90;;;8.33;nan;102345.50;5051719;28;20691;-64
2022/11/12 08:41:12;;;;;;;3.67;3.10;;;8.10;99.90;;;8.31;nan;102348.16;5047266;28;20639;-61
2022/11/12 08:43:41;;;;;;;5.73;4.40;;;8.10;99.90;;;8.27;nan;102345.72;5045244;28;20718;-63
2022/11/12 08:46:08;;;;;;;4.53;3.60;;;8.10;99.90;;;8.20;nan;102355.44;5049176;28;20628;-65
2022/11/12 08:48:35;;;;;;;6.20;4.67;;;8.00;99.90;;;8.09;nan;102347.16;5031725;28;20645;-64
2022/11/12 08:51:04;;;;;;;8.50;5.60;;;7.90;99.90;;;8.24;nan;102351.00;5048534;28;20632;-64
2022/11/12 08:53:31;;;;;;;5.50;3.70;;;8.00;99.90;;;8.26;nan;102352.66;5041634;28;20644;-64
2022/11/12 08:55:58;;;;;;;6.37;3.93;;;8.00;99.90;;;8.36;nan;102356.66;5044665;28;20636;-65
2022/11/12 08:58:25;;;;;;;10.97;5.03;;;8.00;99.90;;;8.38;nan;102361.81;5050594;28;20740;-65
2022/11/12 09:00:54;;;;;;;10.40;6.20;;;8.10;99.90;;;8.42;nan;102355.59;5062374;28;21175;-65
2022/11/12 09:03:24;;;;;;;11.70;6.73;;;8.10;99.90;;;8.36;nan;102358.41;5053536;28;20682;-65
2022/11/12 09:05:52;;;;;;;9.67;4.90;;;8.10;99.90;;;8.41;nan;102356.50;5050745;28;20630;-65
2022/11/12 09:08:22;;;;;;;7.77;5.10;;;8.10;99.90;;;8.55;nan;102360.31;5050222;28;20632;-64
2022/11/12 09:10:50;;;;;;;8.90;6.30;;;8.10;99.90;;;8.55;nan;102359.44;5031491;28;20628;-65
2022/11/12 09:13:18;;;;;;;6.90;4.50;;;8.20;99.90;;;8.50;nan;102350.94;5050867;28;21198;-64
2022/11/12 09:15:46;;;;;;;10.73;5.60;;;8.20;99.90;;;8.46;nan;102359.75;5049689;28;21009;-64
2022/11/12 09:18:16;;;;;;;7.40;4.07;;;8.10;99.90;;;8.55;nan;102354.25;5049290;28;20676;-65
2022/11/12 09:20:45;;;;;;;10.63;6.70;;;8.20;99.90;;;8.48;nan;102352.75;5016518;28;20605;-65
2022/11/12 09:23:16;;;;;;;10.67;6.37;;;8.20;99.90;;;8.41;nan;102351.31;5049630;28;20612;-66
2022/11/12 09:25:44;;;;;;;9.27;5.50;;;8.20;99.90;;;8.34;nan;102352.41;5052057;28;20616;-65
2022/11/12 09:28:17;;;;;;;9.63;5.27;;;8.20;99.90;;;8.25;nan;102357.91;5047595;28;20637;-66
2022/11/12 09:30:48;;;;;;;8.30;5.30;;;8.10;99.90;;;8.35;nan;102361.91;5047973;28;20632;-65
2022/11/12 09:33:18;;;;;;;7.80;4.53;;;8.10;99.90;;;8.46;nan;102365.81;5047809;28;20635;-65
2022/11/12 09:35:46;;;;;;;6.93;4.67;;;8.10;99.90;;;8.46;nan;102362.38;5047915;28;20633;-65
2022/11/12 09:38:14;;;;;;;6.17;3.90;;;8.20;99.90;;;8.52;nan;102356.94;5052163;28;20630;-65
2022/11/12 09:40:50;;;;;;;6.13;4.33;;;8.20;99.90;;;8.58;nan;102351.53;5053628;28;20638;-65
2022/11/12 09:43:22;;;;;;;4.07;3.53;;;8.20;99.90;;;8.47;nan;102353.69;5053512;28;20624;-65
2022/11/12 09:45:52;;;;;;;9.90;3.40;;;8.20;99.90;;;8.55;nan;102354.25;5053096;28;20632;-65
2022/11/12 09:48:46;;;;;;;4.50;2.70;;;8.20;99.90;;;8.71;nan;102362.34;5044496;28;21183;-65
2022/11/12 09:51:31;;;;;;;2.70;2.50;;;8.30;99.90;;;8.76;nan;102356.06;5030338;28;21198;-65
2022/11/12 09:54:16;;;;;;;3.60;2.47;;;8.30;99.90;;;8.82;nan;102365.38;5035269;28;20664;-64
2022/11/12 09:56:43;;;;;;;2.67;2.00;;;8.30;99.90;;;8.86;nan;102349.59;5035654;28;20630;-65
2022/11/12 09:59:12;;;;;;;2.87;2.00;;;8.40;99.90;;;8.89;nan;102348.63;5042495;28;21231;-65
2022/11/12 10:02:12;;;;;;;2.63;2.40;;;8.40;99.90;;;8.93;nan;102343.25;5043229;28;20634;-65
2022/11/12 10:04:57;;;;;;;4.70;3.47;;;8.40;99.90;;;8.84;nan;102337.56;5034887;28;20657;-65
2022/11/12 10:07:37;;;;;;;2.67;2.20;;;8.40;99.90;;;8.77;nan;102347.34;5039270;28;21210;-65
2022/11/12 10:10:45;;;;;;;3.50;2.67;;;8.40;99.90;;;8.89;nan;102336.47;5049419;28;20642;-64
2022/11/12 10:13:48;;;;;;;4.80;2.90;;;8.40;99.90;;;8.98;nan;102330.91;5037817;28;20622;-65
2022/11/12 10:16:41;;;;;;;5.10;4.10;;;8.50;99.90;;;8.85;nan;102326.22;5003796;28;21066;-64
2022/11/12 10:19:36;;;;;;;5.43;3.40;;;8.50;99.90;;;8.83;nan;102325.44;5032874;28;20745;-65
2022/11/12 10:22:21;;;;;;;6.20;3.97;;;8.50;99.90;;;8.76;nan;102318.75;5043244;28;21092;-65
2022/11/12 10:24:48;;;;;;;5.60;3.60;;;8.40;99.90;;;8.79;nan;102326.47;5052285;28;20681;-67
2022/11/12 10:27:21;;;;;;;4.67;3.93;;;8.40;99.90;;;8.70;nan;102330.25;5041331;28;20640;-64
2022/11/12 10:30:05;;;;;;;7.07;3.40;;;8.40;99.90;;;8.76;nan;102326.56;5052012;28;20636;-65
2022/11/12 10:32:34;;;;;;;5.90;5.00;;;8.40;99.90;;;8.66;nan;102330.44;5046114;28;20773;-64
2022/11/12 10:35:01;;;;;;;5.30;3.80;;;8.40;99.90;;;8.52;nan;102331.78;5034521;28;20654;-64
2022/11/12 10:37:47;;;;;;;6.33;5.20;;;8.30;99.90;;;8.72;nan;102336.25;5043255;28;21252;-65
2022/11/12 10:40:23;;;;;;;5.90;3.60;;;8.40;99.90;;;8.81;nan;102327.25;5031215;28;20666;-63
2022/11/12 10:43:16;;;;;;;4.50;3.40;;;8.40;99.90;;;8.83;nan;102323.69;5053349;28;21207;-66
2022/11/12 10:45:45;;;;;;;5.73;3.63;;;8.40;99.90;;;8.87;nan;102316.59;5058041;28;20671;-66
2022/11/12 10:48:33;;;;;;;7.33;4.30;;;8.40;99.90;;;8.99;nan;102316.13;5061366;28;20627;-64
2022/11/12 10:51:02;;;;;;;7.30;4.90;;;8.50;99.90;;;8.81;nan;102314.25;5035044;28;21049;-65
2022/11/12 10:53:36;;;;;;;6.97;4.97;;;8.50;99.90;;;8.89;nan;102315.66;5018226;28;20635;-65
2022/11/12 10:56:24;;;;;;;5.57;3.90;;;8.50;99.90;;;8.90;nan;102306.91;5033176;28;20625;-65
2022/11/12 10:59:09;;;;;;;6.20;4.60;;;8.50;99.90;;;8.85;nan;102313.22;5045682;28;20667;-64
2022/11/12 11:01:37;;;;;;;5.97;3.80;;;8.50;99.90;;;8.80;nan;102310.78;5052168;28;20619;-65
2022/11/12 11:04:27;;;;;;;8.27;4.40;;;8.50;99.90;;;8.91;nan;102311.22;5045721;28;20684;-65
2022/11/12 11:07:22;;;;;;;3.13;2.23;;;8.50;99.90;;;9.15;nan;102312.03;5052290;28;20635;-65
2022/11/12 11:09:59;;;;;;;7.60;3.67;;;8.60;99.90;;;9.23;nan;102307.34;5026684;28;20635;-64
2022/11/12 11:12:30;;;;;;;5.80;4.07;;;8.70;99.90;;;9.22;nan;102308.28;5042155;28;20633;-64
2022/11/12 11:15:22;;;;;;;6.47;4.60;;;8.70;99.90;;;9.18;nan;102307.53;5049677;28;20684;-64